Time;durP1;ratioP1;P1;durP2;ratioP2;P2;SDS_P1;SDS_P2;PMS_P1;PMS_P2;Temp;Humidity;BMP_temperature;BMP_pressure;BME280_temperature;BME280_humidity;BME280_pressure;Samples;Min_cycle;Max_cycle;Signal;HPM_P1;HPM_P2
2022/09/08 00:00:28;;;;;;;0.10;0.10;;;;;;;8.82;76.86;99469.22;4931150;29;20105;-72
2022/09/08 00:02:55;;;;;;;0.10;0.10;;;;;;;8.84;77.01;99469.78;4932430;29;20431;-72
2022/09/08 00:05:24;;;;;;;0.20;0.20;;;;;;;8.80;76.75;99464.84;4950211;29;20055;-72
2022/09/08 00:07:53;;;;;;;1.65;0.20;;;;;;;8.80;76.90;99478.47;4947303;28;20094;-72
2022/09/08 00:10:25;;;;;;;0.13;0.13;;;;;;;8.79;76.75;99468.66;4950267;29;20055;-72
2022/09/08 00:12:51;;;;;;;0.20;0.20;;;;;;;8.76;76.68;99477.41;4947304;28;20051;-71
2022/09/08 00:15:18;;;;;;;0.10;0.10;;;;;;;8.69;76.75;99471.41;4935686;29;20098;-71
2022/09/08 00:17:44;;;;;;;0.37;0.10;;;;;;;8.66;76.89;99485.53;4916130;29;20075;-72
2022/09/08 00:20:10;;;;;;;0.70;0.10;;;;;;;8.68;76.62;99477.09;4932593;29;20045;-69
2022/09/08 00:22:37;;;;;;;0.10;0.10;;;;;;;8.65;76.42;99476.56;4914615;29;20052;-71
2022/09/08 00:25:03;;;;;;;0.30;0.20;;;;;;;8.64;76.62;99491.28;4929859;29;20431;-71
2022/09/08 00:27:31;;;;;;;1.23;0.20;;;;;;;8.65;76.48;99483.91;4932188;29;20059;-70
2022/09/08 00:29:57;;;;;;;0.00;0.00;;;;;;;8.68;76.41;99486.13;4932576;29;20479;-70
2022/09/08 00:32:23;;;;;;;0.73;0.20;;;;;;;8.73;76.60;99490.75;4946023;28;20570;-69
2022/09/08 00:34:50;;;;;;;0.65;0.22;;;;;;;8.75;76.42;99489.38;4919457;29;20871;-68
2022/09/08 00:37:17;;;;;;;0.10;0.10;;;;;;;8.74;76.32;99484.19;4947068;28;20430;-69
2022/09/08 00:39:43;;;;;;;0.10;0.10;;;;;;;8.72;76.16;99479.03;4930718;29;20303;-70
2022/09/08 00:42:09;;;;;;;0.13;0.10;;;;;;;8.69;76.26;99492.38;4928963;29;20114;-69
2022/09/08 00:44:39;;;;;;;0.10;0.10;;;;;;;8.63;76.01;99480.63;4947706;29;20510;-69
2022/09/08 00:47:13;;;;;;;0.10;0.10;;;;;;;8.67;76.01;99489.09;4948271;28;20055;-69
2022/09/08 00:49:41;;;;;;;0.10;0.10;;;;;;;8.64;75.82;99488.56;4952232;29;20047;-70
2022/09/08 00:52:08;;;;;;;0.28;0.10;;;;;;;8.64;75.77;99485.00;4932004;29;20047;-70
2022/09/08 00:54:36;;;;;;;0.00;0.00;;;;;;;8.63;75.75;99491.53;4934582;29;20114;-70
2022/09/08 00:57:02;;;;;;;0.10;0.10;;;;;;;8.65;75.76;99492.91;4947716;28;20110;-70
2022/09/08 00:59:32;;;;;;;1.55;0.10;;;;;;;8.67;75.59;99487.22;4931883;29;20051;-69
2022/09/08 01:01:59;;;;;;;0.70;0.10;;;;;;;8.67;75.69;99489.94;4933245;29;20051;-69
2022/09/08 01:04:25;;;;;;;0.10;0.10;;;;;;;8.67;75.60;99487.22;4930173;29;20055;-69
2022/09/08 01:12:44;;;;;;;0.15;0.10;;;;;;;8.71;75.69;99498.38;4950007;28;20148;-70
2022/09/08 01:15:11;;;;;;;0.10;0.10;;;;;;;8.72;75.99;99497.28;4948335;29;20043;-70
2022/09/08 01:17:39;;;;;;;0.10;0.10;;;;;;;8.70;76.01;99496.72;4947450;28;20046;-70
2022/09/08 01:20:09;;;;;;;0.10;0.10;;;;;;;8.74;76.09;99492.38;4933035;29;20146;-70
2022/09/08 01:22:53;;;;;;;0.10;0.10;;;;;;;8.72;75.92;99495.38;4948288;28;20070;-70
2022/09/08 01:25:30;;;;;;;0.10;0.10;;;;;;;8.71;76.00;99496.47;4950967;29;20515;-72
2022/09/08 01:28:04;;;;;;;0.00;0.00;;;;;;;8.68;75.94;99496.19;4948803;28;20110;-72
2022/09/08 01:30:32;;;;;;;0.10;0.10;;;;;;;8.62;75.89;99495.34;4917418;29;20142;-69
2022/09/08 01:32:58;;;;;;;0.10;0.10;;;;;;;8.64;75.94;99498.63;4945149;28;20102;-70
2022/09/08 01:35:29;;;;;;;0.10;0.10;;;;;;;8.61;75.86;99502.72;4949489;29;20051;-70
2022/09/08 01:37:55;;;;;;;0.10;0.10;;;;;;;8.59;76.08;99499.47;4947285;28;20143;-70
2022/09/08 01:40:21;;;;;;;0.10;0.10;;;;;;;8.57;75.94;99495.34;4930982;29;20478;-70
2022/09/08 01:42:48;;;;;;;0.10;0.10;;;;;;;8.52;76.04;99504.31;4947861;28;20059;-70
2022/09/08 01:45:15;;;;;;;0.10;0.10;;;;;;;8.53;76.24;99502.44;4946682;29;20059;-70
2022/09/08 01:47:41;;;;;;;0.38;0.10;;;;;;;8.52;76.35;99504.31;4949116;28;20110;-70
2022/09/08 01:50:09;;;;;;;0.10;0.10;;;;;;;8.51;76.16;99503.53;4949210;29;20064;-70
2022/09/08 01:52:34;;;;;;;;;;;;;;;8.52;75.81;99507.06;4928345;29;20055;-69
2022/09/08 01:55:00;;;;;;;0.10;0.10;;;;;;;8.46;75.29;99506.19;4947993;29;20361;-71
2022/09/08 01:57:27;;;;;;;0.10;0.10;;;;;;;8.46;75.24;99508.09;4947737;28;20055;-70
2022/09/08 01:59:53;;;;;;;0.10;0.10;;;;;;;8.43;75.19;99505.91;4916000;29;20102;-71
2022/09/08 02:02:21;;;;;;;0.00;0.00;;;;;;;8.41;75.33;99516.25;4914387;29;20490;-70
2022/09/08 02:04:47;;;;;;;0.00;0.00;;;;;;;8.40;75.54;99517.34;4946623;29;20442;-70
2022/09/08 02:07:13;;;;;;;0.10;0.10;;;;;;;8.38;75.47;99507.53;4948789;28;20058;-70
2022/09/08 02:09:39;;;;;;;0.20;0.10;;;;;;;8.45;75.64;99514.66;4932092;29;20058;-70
2022/09/08 02:12:05;;;;;;;0.00;0.00;;;;;;;8.45;75.73;99520.09;4947313;28;20062;-69
2022/09/08 02:14:31;;;;;;;0.05;0.05;;;;;;;8.31;75.51;99495.22;4949540;29;20499;-70
2022/09/08 02:16:57;;;;;;;0.10;0.10;;;;;;;8.47;75.68;99517.91;4929828;29;20054;-70
2022/09/08 02:19:24;;;;;;;0.10;0.10;;;;;;;8.50;75.42;99523.66;4945570;29;20051;-70
2022/09/08 02:21:50;;;;;;;0.10;0.10;;;;;;;8.47;75.54;99531.53;4944703;28;20590;-71
2022/09/08 02:24:16;;;;;;;0.10;0.10;;;;;;;8.45;75.54;99523.63;4949059;29;20134;-69
2022/09/08 02:26:42;;;;;;;0.10;0.10;;;;;;;8.44;75.77;99527.44;4949624;28;20048;-72
2022/09/08 02:29:09;;;;;;;0.00;0.00;;;;;;;8.44;75.56;99529.34;4949843;29;20530;-72
2022/09/08 02:31:36;;;;;;;0.10;0.10;;;;;;;8.45;75.77;99531.78;4910726;28;20062;-72
2022/09/08 02:34:03;;;;;;;0.10;0.10;;;;;;;8.47;75.55;99539.72;4944719;29;20066;-72
2022/09/08 02:36:31;;;;;;;0.10;0.10;;;;;;;8.47;75.50;99539.72;4927977;28;20047;-71
2022/09/08 02:38:57;;;;;;;0.00;0.00;;;;;;;8.47;75.64;99535.06;4946387;29;20051;-72
2022/09/08 02:41:25;;;;;;;0.10;0.10;;;;;;;8.49;75.75;99548.44;4930609;29;20154;-72
2022/09/08 02:43:51;;;;;;;0.05;0.05;;;;;;;8.47;75.61;99531.53;4946221;28;20050;-68
2022/09/08 02:46:18;;;;;;;0.10;0.10;;;;;;;8.44;75.42;99535.59;4928637;29;20047;-71
2022/09/08 02:48:44;;;;;;;0.10;0.10;;;;;;;8.41;75.70;99541.59;4929399;29;20059;-69
2022/09/08 02:51:12;;;;;;;0.03;0.03;;;;;;;8.40;76.03;99550.84;4931794;29;20055;-70
2022/09/08 02:53:41;;;;;;;0.10;0.10;;;;;;;8.36;76.40;99545.13;4944481;28;20533;-70
2022/09/08 02:56:08;;;;;;;0.10;0.10;;;;;;;8.32;76.72;99537.72;4945770;29;20509;-69
2022/09/08 02:58:35;;;;;;;0.10;0.10;;;;;;;8.35;76.93;99553.53;4931715;29;20059;-72
2022/09/08 03:01:01;;;;;;;0.10;0.10;;;;;;;8.36;77.17;99550.56;4947473;29;20070;-70
2022/09/08 03:03:27;;;;;;;0.10;0.10;;;;;;;8.38;77.09;99556.56;4948607;28;20078;-70
2022/09/08 03:05:54;;;;;;;0.10;0.10;;;;;;;8.37;77.12;99552.19;4948460;29;20063;-69
2022/09/08 03:08:21;;;;;;;0.10;0.10;;;;;;;8.35;76.91;99557.09;4933120;29;20049;-70
2022/09/08 03:10:49;;;;;;;0.10;0.10;;;;;;;8.31;76.75;99558.72;4954529;29;20548;-73
2022/09/08 03:13:15;;;;;;;;;;;;;;;8.31;76.36;99563.34;4951674;28;20150;-73
2022/09/08 03:15:41;;;;;;;0.10;0.10;;;;;;;8.28;75.95;99574.78;4952681;29;20025;-72
2022/09/08 03:18:07;;;;;;;0.00;0.00;;;;;;;8.26;75.67;99571.50;4954216;28;20055;-70
2022/09/08 03:20:35;;;;;;;0.10;0.10;;;;;;;8.23;75.18;99576.41;4949976;29;20549;-70
2022/09/08 03:23:03;;;;;;;0.10;0.10;;;;;;;8.23;75.41;99572.84;4948623;28;20086;-71
2022/09/08 03:25:30;;;;;;;0.10;0.10;;;;;;;8.24;75.11;99579.91;4949368;29;20047;-69
2022/09/08 03:27:57;;;;;;;0.15;0.10;;;;;;;8.26;75.16;99579.66;4951833;28;20431;-70
2022/09/08 03:30:23;;;;;;;0.10;0.10;;;;;;;8.26;75.16;99577.75;4948090;29;20062;-70
2022/09/08 03:32:50;;;;;;;0.10;0.10;;;;;;;8.23;74.54;99581.00;4933956;29;20114;-69
2022/09/08 03:35:18;;;;;;;0.10;0.10;;;;;;;8.26;74.66;99585.91;4953288;29;20063;-69
2022/09/08 03:37:44;;;;;;;;;;;;;;;8.26;74.29;99588.66;4932070;29;20118;-72
2022/09/08 03:40:13;;;;;;;0.10;0.10;;;;;;;8.27;74.03;99582.09;4951883;29;20303;-72
2022/09/08 03:42:41;;;;;;;0.10;0.10;;;;;;;8.28;74.07;99583.78;4951962;28;20058;-72
2022/09/08 03:45:11;;;;;;;0.10;0.10;;;;;;;8.28;73.79;99585.66;4953712;29;20055;-72
2022/09/08 03:47:37;;;;;;;0.10;0.10;;;;;;;8.27;73.90;99589.47;4949316;28;20106;-69
2022/09/08 03:50:05;;;;;;;0.10;0.10;;;;;;;8.30;73.78;99603.41;4948432;29;20055;-70
2022/09/08 03:52:31;;;;;;;0.10;0.10;;;;;;;8.31;73.73;99609.66;4931991;29;20573;-71
2022/09/08 03:55:05;;;;;;;0.10;0.10;;;;;;;8.33;73.70;99604.75;4933264;29;20051;-71
2022/09/08 03:57:32;;;;;;;0.10;0.10;;;;;;;8.37;73.55;99606.69;4904056;29;20053;-70
2022/09/08 03:59:59;;;;;;;0.10;0.10;;;;;;;8.40;73.29;99616.25;4952470;29;20143;-70
2022/09/08 04:02:28;;;;;;;0.00;0.00;;;;;;;8.37;73.06;99601.25;4952309;28;20050;-70
2022/09/08 04:04:56;;;;;;;0.10;0.10;;;;;;;8.48;72.81;99615.72;4935025;29;20055;-72
2022/09/08 04:07:24;;;;;;;0.10;0.10;;;;;;;8.38;72.87;99589.25;4950317;28;20070;-72
2022/09/08 04:09:50;;;;;;;0.10;0.10;;;;;;;8.54;72.70;99616.59;4915834;29;20126;-73
2022/09/08 04:12:17;;;;;;;0.10;0.10;;;;;;;8.56;72.04;99616.34;4933993;29;20165;-70
2022/09/08 04:14:43;;;;;;;0.10;0.10;;;;;;;8.61;71.83;99622.66;4948258;28;20043;-72
2022/09/08 04:17:09;;;;;;;0.15;0.10;;;;;;;8.64;71.56;99622.09;4919507;28;20130;-71
2022/09/08 04:19:37;;;;;;;0.10;0.10;;;;;;;8.63;71.52;99617.75;4965958;28;20537;-71
2022/09/08 04:22:03;;;;;;;0.20;0.13;;;;;;;8.68;71.56;99627.84;4964901;28;20385;-71
2022/09/08 04:24:34;;;;;;;0.10;0.10;;;;;;;8.74;71.55;99628.66;4947069;28;20034;-72
2022/09/08 04:27:00;;;;;;;0.80;0.20;;;;;;;8.79;70.88;99626.78;4966137;28;20105;-71
2022/09/08 04:29:26;;;;;;;0.10;0.10;;;;;;;8.84;70.72;99628.72;4964879;28;20668;-71
2022/09/08 04:31:53;;;;;;;0.22;0.10;;;;;;;8.88;70.62;99629.81;4948793;28;20145;-71
2022/09/08 04:34:19;;;;;;;0.10;0.10;;;;;;;8.86;70.41;99623.00;4607816;28;9999754;-71
2022/09/08 04:36:46;;;;;;;0.10;0.10;;;;;;;8.78;70.08;99625.16;4930409;28;20125;-71
2022/09/08 04:39:13;;;;;;;;;;;;;;;8.72;70.01;99631.69;4968545;28;20057;-71
2022/09/08 04:41:39;;;;;;;0.10;0.10;;;;;;;8.67;70.03;99619.94;4968770;28;20022;-70
2022/09/08 04:44:06;;;;;;;0.10;0.10;;;;;;;8.62;69.79;99628.91;4936582;28;20050;-71
2022/09/08 04:46:33;;;;;;;0.10;0.10;;;;;;;8.59;69.86;99626.72;4934782;28;20051;-71
2022/09/08 04:49:00;;;;;;;0.10;0.10;;;;;;;8.64;69.97;99622.09;4949443;28;20042;-71
2022/09/08 04:51:27;;;;;;;0.10;0.10;;;;;;;8.73;69.98;99632.47;4951754;28;20047;-71
2022/09/08 04:53:56;;;;;;;0.10;0.10;;;;;;;8.80;69.58;99635.81;4953352;28;20093;-68
2022/09/08 04:56:23;;;;;;;0.10;0.10;;;;;;;8.80;69.25;99641.25;4966810;28;20142;-69
2022/09/08 04:58:50;;;;;;;0.10;0.10;;;;;;;8.78;69.69;99637.97;4972081;28;20470;-69
2022/09/08 05:01:19;;;;;;;0.10;0.10;;;;;;;8.71;69.80;99648.28;4972384;28;20057;-68
2022/09/08 05:03:45;;;;;;;0.10;0.10;;;;;;;8.68;70.00;99640.66;4967849;28;20146;-69
2022/09/08 05:06:14;;;;;;;0.10;0.10;;;;;;;8.58;70.67;99638.69;4970049;28;20537;-69
2022/09/08 05:08:42;;;;;;;0.10;0.10;;;;;;;8.54;71.72;99645.78;4968010;28;20526;-71
2022/09/08 05:11:10;;;;;;;0.10;0.10;;;;;;;8.46;72.77;99647.06;4961263;28;20138;-71
2022/09/08 05:13:37;;;;;;;0.10;0.10;;;;;;;8.40;73.37;99653.56;4952869;28;20046;-69
2022/09/08 05:16:05;;;;;;;0.10;0.10;;;;;;;8.36;74.00;99656.00;4975636;28;20043;-69
2022/09/08 05:18:31;;;;;;;0.10;0.10;;;;;;;8.38;74.21;99656.56;4962324;28;20050;-69
2022/09/08 05:20:57;;;;;;;0.10;0.10;;;;;;;8.44;74.27;99660.13;4974558;28;20050;-69
2022/09/08 05:23:23;;;;;;;0.10;0.10;;;;;;;8.51;73.80;99661.56;4966289;28;20466;-68
2022/09/08 05:25:56;;;;;;;0.10;0.10;;;;;;;8.64;73.21;99660.28;4959501;28;20523;-69
2022/09/08 05:28:25;;;;;;;0.10;0.10;;;;;;;8.78;72.81;99657.88;4980003;28;20137;-69
2022/09/08 05:30:51;;;;;;;0.10;0.10;;;;;;;8.89;72.18;99661.44;4976318;28;20486;-69
2022/09/08 05:33:17;;;;;;;0.10;0.10;;;;;;;8.98;71.79;99659.06;4965286;28;20133;-71
2022/09/08 05:35:44;;;;;;;0.10;0.10;;;;;;;8.99;71.20;99670.75;4974072;28;20070;-72
2022/09/08 05:38:10;;;;;;;0.10;0.10;;;;;;;8.98;70.86;99666.41;4949704;28;20634;-72
2022/09/08 05:40:36;;;;;;;0.10;0.10;;;;;;;8.97;70.50;99667.47;4956559;28;20202;-71
2022/09/08 05:43:02;;;;;;;0.10;0.10;;;;;;;8.99;70.34;99670.75;4974517;28;20649;-72
2022/09/08 05:45:30;;;;;;;0.10;0.10;;;;;;;9.06;69.69;99676.81;4971214;28;20058;-72
2022/09/08 05:47:56;;;;;;;0.20;0.20;;;;;;;9.15;69.00;99671.66;4977561;28;20617;-71
2022/09/08 05:50:23;;;;;;;0.10;0.10;;;;;;;9.21;68.61;99668.66;4923440;28;20049;-71
2022/09/08 05:52:49;;;;;;;0.10;0.10;;;;;;;9.35;68.36;99676.31;4957912;28;20068;-72
2022/09/08 05:55:17;;;;;;;0.10;0.10;;;;;;;9.54;67.68;99678.56;4959431;28;20059;-72
2022/09/08 05:57:43;;;;;;;0.20;0.20;;;;;;;9.70;67.23;99677.47;4938437;28;20046;-72
2022/09/08 06:00:11;;;;;;;0.10;0.10;;;;;;;9.75;66.45;99657.53;4968762;28;20066;-71
2022/09/08 06:02:38;;;;;;;;;;;;;;;9.96;65.23;99674.72;4969825;28;20073;-71
2022/09/08 06:05:04;;;;;;;0.15;0.15;;;;;;;10.01;64.28;99673.91;4958117;28;19930;-72
2022/09/08 06:07:31;;;;;;;0.20;0.20;;;;;;;10.10;64.05;99683.19;4962198;28;20057;-71
2022/09/08 06:09:57;;;;;;;0.10;0.10;;;;;;;10.09;64.00;99670.63;4976851;28;20406;-72
2022/09/08 06:12:23;;;;;;;0.20;0.20;;;;;;;10.15;63.14;99676.91;4972072;28;20506;-72
2022/09/08 06:14:49;;;;;;;0.17;0.17;;;;;;;10.17;63.04;99680.19;4971122;28;20039;-72
2022/09/08 06:17:16;;;;;;;0.10;0.10;;;;;;;10.16;62.77;99682.09;4966503;28;20559;-69
2022/09/08 06:19:46;;;;;;;0.15;0.15;;;;;;;9.99;62.99;99679.66;4980411;28;20137;-70
2022/09/08 06:22:13;;;;;;;0.10;0.10;;;;;;;9.83;63.67;99687.03;4967019;28;20065;-72
2022/09/08 06:24:39;;;;;;;0.10;0.10;;;;;;;9.71;64.36;99683.72;4969044;28;20043;-69
2022/09/08 06:27:10;;;;;;;0.10;0.10;;;;;;;9.54;65.93;99695.72;4957254;28;20430;-71
2022/09/08 06:29:49;;;;;;;0.10;0.10;;;;;;;9.39;66.75;99684.78;4960568;28;20050;-69
2022/09/08 06:32:25;;;;;;;0.10;0.10;;;;;;;9.32;67.25;99695.94;4950175;28;20050;-68
2022/09/08 06:34:56;;;;;;;0.10;0.10;;;;;;;9.26;67.72;99702.50;4967594;28;20186;-69
2022/09/08 06:37:32;;;;;;;0.20;0.20;;;;;;;9.26;67.57;99699.78;4967326;28;20090;-71
2022/09/08 06:40:03;;;;;;;0.10;0.10;;;;;;;9.44;67.18;99701.16;4954442;28;20505;-69
2022/09/08 06:42:39;;;;;;;0.20;0.20;;;;;;;9.65;66.29;99710.22;4968850;28;20064;-69
2022/09/08 06:45:14;;;;;;;0.20;0.20;;;;;;;9.88;65.12;99713.53;4990038;28;20054;-69
2022/09/08 06:47:47;;;;;;;0.20;0.20;;;;;;;10.08;63.79;99709.97;5007973;28;20061;-69
2022/09/08 06:50:15;;;;;;;0.20;0.20;;;;;;;10.23;62.72;99711.06;5005847;28;20048;-69
2022/09/08 06:52:45;;;;;;;0.10;0.10;;;;;;;10.33;62.38;99720.06;4979131;28;20213;-69
2022/09/08 06:55:22;;;;;;;0.10;0.10;;;;;;;10.32;62.42;99723.91;5009222;28;20050;-69
2022/09/08 06:57:58;;;;;;;0.10;0.10;;;;;;;10.33;62.75;99731.00;5007172;28;20057;-69
2022/09/08 07:00:36;;;;;;;0.10;0.10;;;;;;;10.35;63.01;99730.72;5013275;28;20151;-72
2022/09/08 07:03:15;;;;;;;0.10;0.10;;;;;;;10.35;62.72;99728.81;5007286;28;20145;-72
2022/09/08 07:05:54;;;;;;;0.20;0.20;;;;;;;10.29;62.82;99729.88;4974448;28;20158;-71
2022/09/08 07:08:56;;;;;;;0.10;0.10;;;;;;;10.28;62.48;99733.72;5006839;28;20096;-72
2022/09/08 07:11:37;;;;;;;0.20;0.20;;;;;;;10.36;61.94;99738.66;4948883;28;20103;-69
2022/09/08 07:14:13;;;;;;;0.15;0.15;;;;;;;10.54;61.88;99741.94;4989194;28;20567;-72
2022/09/08 07:16:45;;;;;;;0.47;0.20;;;;;;;10.48;61.69;99737.56;5008774;28;20049;-71
2022/09/08 07:19:19;;;;;;;0.10;0.10;;;;;;;10.23;63.85;99743.84;4974873;28;20216;-72
2022/09/08 07:21:52;;;;;;;0.10;0.10;;;;;;;9.85;66.47;99750.38;4992608;28;20087;-71
2022/09/08 07:24:23;;;;;;;0.10;0.10;;;;;;;9.62;67.28;99754.44;5006142;28;20046;-73
2022/09/08 07:26:55;;;;;;;0.10;0.10;;;;;;;9.55;67.89;99753.88;4992110;28;20108;-72
2022/09/08 07:29:26;;;;;;;0.20;0.20;;;;;;;9.59;66.86;99755.78;5005829;28;20060;-72
2022/09/08 07:31:53;;;;;;;0.10;0.10;;;;;;;9.72;66.46;99754.47;4988723;28;20123;-72
2022/09/08 07:34:22;;;;;;;0.20;0.20;;;;;;;10.15;65.61;99754.22;5011273;28;20050;-69
2022/09/08 07:36:57;;;;;;;0.30;0.30;;;;;;;10.98;63.05;99751.38;4990308;28;20134;-69
2022/09/08 07:39:30;;;;;;;0.20;0.20;;;;;;;12.07;59.85;99750.81;4988980;28;20627;-69
2022/09/08 07:41:59;;;;;;;0.20;0.20;;;;;;;12.44;57.47;99745.84;4992193;28;20069;-72
2022/09/08 07:44:25;;;;;;;0.20;0.20;;;;;;;12.26;56.60;99745.47;5010804;28;20054;-72
2022/09/08 07:47:13;;;;;;;0.20;0.20;;;;;;;11.98;56.93;99753.31;4993507;28;20049;-69
2022/09/08 07:49:48;;;;;;;0.20;0.20;;;;;;;11.70;57.51;99755.69;5013881;28;20045;-72
2022/09/08 07:52:26;;;;;;;0.20;0.20;;;;;;;11.68;57.63;99757.91;5016780;28;20382;-72
2022/09/08 07:55:03;;;;;;;0.10;0.10;;;;;;;11.56;57.76;99757.44;5008088;28;20038;-69
2022/09/08 07:57:40;;;;;;;0.20;0.20;;;;;;;11.53;58.34;99750.59;4993594;28;20116;-72
2022/09/08 08:00:11;;;;;;;0.20;0.20;;;;;;;11.51;58.18;99762.94;4989731;28;20100;-72
2022/09/08 08:02:57;;;;;;;0.20;0.20;;;;;;;11.42;57.81;99752.59;4991310;28;20550;-69
2022/09/08 08:05:29;;;;;;;0.22;0.20;;;;;;;11.12;58.65;99757.09;5011989;28;20068;-72
2022/09/08 08:08:08;;;;;;;0.20;0.20;;;;;;;10.92;59.49;99752.50;4989532;28;20070;-71
2022/09/08 08:10:39;;;;;;;0.20;0.20;;;;;;;10.61;59.47;99767.09;4960072;28;20053;-72
2022/09/08 08:13:15;;;;;;;0.10;0.10;;;;;;;10.44;59.68;99770.09;4985575;28;20080;-73
2022/09/08 08:15:45;;;;;;;0.20;0.20;;;;;;;10.34;60.21;99770.91;4987911;28;20165;-71
2022/09/08 08:18:19;;;;;;;0.10;0.10;;;;;;;10.32;60.80;99777.72;5009427;28;20050;-69
2022/09/08 08:20:51;;;;;;;0.10;0.10;;;;;;;10.13;60.99;99756.41;4995615;28;20042;-69
2022/09/08 08:23:47;;;;;;;0.10;0.10;;;;;;;10.24;61.18;99768.16;5007768;28;20085;-71
2022/09/08 08:26:25;;;;;;;0.20;0.20;;;;;;;10.23;60.98;99773.91;4960120;28;20456;-69
2022/09/08 08:29:00;;;;;;;0.20;0.20;;;;;;;10.25;60.50;99785.38;4988101;28;20398;-69
2022/09/08 08:31:36;;;;;;;0.30;0.30;;;;;;;10.50;60.35;99787.31;4989294;28;20045;-72
2022/09/08 08:34:06;;;;;;;0.30;0.30;;;;;;;11.02;59.05;99787.22;4987922;28;20069;-72
2022/09/08 08:36:38;;;;;;;0.30;0.30;;;;;;;11.51;57.49;99788.41;4974858;28;20099;-71
2022/09/08 08:39:14;;;;;;;0.20;0.20;;;;;;;11.92;56.05;99784.63;5008344;28;20127;-69
2022/09/08 08:41:52;;;;;;;0.25;0.22;;;;;;;12.27;55.06;99782.72;5003441;28;20053;-69
2022/09/08 08:44:29;;;;;;;0.20;0.20;;;;;;;12.36;54.89;99779.41;4999547;28;20128;-69
2022/09/08 08:47:28;;;;;;;0.32;0.28;;;;;;;12.06;54.88;99779.31;5004563;28;20505;-69
2022/09/08 08:50:32;;;;;;;0.20;0.20;;;;;;;11.47;56.53;99792.78;4990408;28;20090;-73
2022/09/08 08:53:18;;;;;;;1.23;0.20;;;;;;;10.93;58.28;99795.19;4986756;28;20133;-72
2022/09/08 08:55:55;;;;;;;0.73;0.20;;;;;;;10.46;61.31;99794.44;4967204;28;20046;-73
2022/09/08 08:58:38;;;;;;;0.10;0.10;;;;;;;10.11;63.80;99815.97;4988149;28;20093;-71
2022/09/08 09:01:23;;;;;;;0.10;0.10;;;;;;;9.88;66.24;99818.09;4991582;28;20093;-71
2022/09/08 09:04:08;;;;;;;0.20;0.20;;;;;;;9.92;67.49;99815.66;4991418;28;20046;-69
2022/09/08 09:06:51;;;;;;;0.20;0.20;;;;;;;10.17;67.17;99820.34;4990321;28;20042;-69
2022/09/08 09:09:37;;;;;;;0.40;0.40;;;;;;;10.87;64.96;99815.44;4989331;28;20053;-73
2022/09/08 09:12:31;;;;;;;0.50;0.50;;;;;;;12.85;57.91;99813.22;4974379;28;20524;-70
2022/09/08 09:15:30;;;;;;;0.50;0.50;;;;;;;14.76;51.11;99811.78;5008298;28;20042;-70
2022/09/08 09:18:24;;;;;;;0.60;0.60;;;;;;;16.30;47.83;99815.19;4937304;28;20049;-69
2022/09/08 09:21:00;;;;;;;0.70;0.70;;;;;;;17.52;43.68;99825.25;5004618;28;20136;-72
2022/09/08 09:23:36;;;;;;;0.20;0.20;;;;;;;16.63;43.63;99808.59;4987846;28;20056;-73
2022/09/08 09:26:14;;;;;;;0.20;0.20;;;;;;;14.71;47.54;99807.97;5008065;28;20077;-70
2022/09/08 09:29:07;;;;;;;0.20;0.20;;;;;;;13.05;52.04;99823.16;4973094;28;20293;-69
2022/09/08 09:32:14;;;;;;;0.20;0.20;;;;;;;11.98;55.00;99819.09;5002342;28;20050;-69
2022/09/08 09:34:49;;;;;;;;;;;;;;;11.35;56.37;99825.97;5008543;28;20108;-71
2022/09/08 09:37:36;;;;;;;0.20;0.20;;;;;;;11.02;57.45;99836.47;5006601;28;20020;-68
2022/09/08 09:40:23;;;;;;;0.20;0.20;;;;;;;10.93;57.85;99836.22;4959459;28;20116;-71
2022/09/08 09:43:01;;;;;;;0.17;0.17;;;;;;;10.92;57.48;99834.56;4987329;28;20053;-69
2022/09/08 09:46:01;;;;;;;0.20;0.20;;;;;;;10.90;57.79;99837.56;4974887;28;20050;-69
2022/09/08 09:48:57;;;;;;;0.20;0.20;;;;;;;10.79;57.10;99830.50;4937939;28;20640;-68
2022/09/08 09:51:36;;;;;;;0.20;0.20;;;;;;;10.67;57.69;99836.22;5006703;28;20056;-69
2022/09/08 09:54:18;;;;;;;0.10;0.10;;;;;;;10.55;58.32;99844.72;5006787;28;20057;-71
2022/09/08 09:57:21;;;;;;;0.10;0.10;;;;;;;10.48;58.22;99847.72;4985640;28;20652;-68
2022/09/08 10:00:25;;;;;;;0.10;0.10;;;;;;;10.50;58.18;99850.19;4977208;28;20140;-68
2022/09/08 10:03:26;;;;;;;0.20;0.20;;;;;;;10.53;58.54;99863.31;5007096;28;20066;-69
2022/09/08 10:06:26;;;;;;;0.10;0.10;;;;;;;10.48;58.74;99860.59;5004965;28;20038;-69
2022/09/08 10:09:28;;;;;;;0.10;0.10;;;;;;;10.37;59.87;99873.38;4985904;28;20414;-69
2022/09/08 10:12:33;;;;;;;0.10;0.10;;;;;;;10.15;61.25;99881.84;5007926;28;20081;-69
2022/09/08 10:15:55;;;;;;;0.10;0.10;;;;;;;10.25;61.53;99881.03;4990646;28;20108;-69
2022/09/08 10:18:55;;;;;;;0.20;0.20;;;;;;;10.82;60.02;99881.06;5008345;28;20054;-69
2022/09/08 10:22:12;;;;;;;0.20;0.20;;;;;;;10.97;58.41;99881.06;5003896;28;20120;-69
2022/09/08 10:25:12;;;;;;;0.20;0.20;;;;;;;10.87;58.17;99886.56;4990355;28;20057;-69
2022/09/08 10:28:28;;;;;;;0.20;0.20;;;;;;;11.02;58.29;99885.72;4987708;28;20039;-69
2022/09/08 10:31:38;;;;;;;0.63;0.30;;;;;;;11.42;57.24;99894.13;4940279;29;20051;-69
2022/09/08 10:34:51;;;;;;;0.30;0.30;;;;;;;11.88;56.26;99884.91;4932416;29;20142;-69
2022/09/08 10:37:48;;;;;;;0.60;0.60;;;;;;;12.59;54.06;99895.75;4942797;28;20081;-69
2022/09/08 10:40:34;;;;;;;0.40;0.40;;;;;;;13.65;51.08;99887.03;4930714;29;20078;-69
2022/09/08 10:43:18;;;;;;;0.63;0.63;;;;;;;13.90;49.74;99886.72;4942516;28;20055;-69
2022/09/08 10:46:29;;;;;;;0.40;0.20;;;;;;;13.17;50.29;99883.97;4915996;29;20067;-69
2022/09/08 10:49:21;;;;;;;0.20;0.20;;;;;;;12.36;52.17;99889.06;4909267;29;20230;-69
2022/09/08 10:52:19;;;;;;;0.30;0.30;;;;;;;11.78;53.99;99905.75;4914490;28;20102;-69
2022/09/08 10:55:12;;;;;;;0.15;0.15;;;;;;;11.47;54.81;99900.41;4931305;29;20548;-69
2022/09/08 10:57:59;;;;;;;0.10;0.10;;;;;;;11.17;55.67;99906.78;4937948;28;20058;-68
2022/09/08 11:00:31;;;;;;;0.10;0.10;;;;;;;10.95;56.44;99920.75;4932895;28;20457;-69
2022/09/08 11:03:25;;;;;;;0.10;0.10;;;;;;;10.75;57.13;99914.16;4966255;28;20204;-69
2022/09/08 11:05:57;;;;;;;0.10;0.10;;;;;;;10.56;58.14;99911.97;5007896;28;20509;-69
2022/09/08 11:08:44;;;;;;;0.10;0.10;;;;;;;10.41;58.80;99923.72;5008030;28;20054;-68
2022/09/08 11:11:43;;;;;;;1.85;0.30;;;;;;;10.33;59.19;99922.31;5008065;28;20054;-71
2022/09/08 11:14:32;;;;;;;0.17;0.17;;;;;;;10.36;59.11;99927.22;5007785;28;20075;-71
2022/09/08 11:17:12;;;;;;;0.73;0.20;;;;;;;10.42;58.24;99928.09;4989365;28;20045;-71
2022/09/08 11:19:41;;;;;;;0.10;0.10;;;;;;;10.45;58.09;99919.34;4990758;28;20050;-69
2022/09/08 11:22:24;;;;;;;0.15;0.15;;;;;;;10.51;57.28;99925.66;5007397;28;20156;-70
2022/09/08 11:25:07;;;;;;;0.10;0.10;;;;;;;10.63;56.57;99937.16;5007912;28;20504;-69
2022/09/08 11:27:42;;;;;;;0.20;0.20;;;;;;;10.83;56.28;99927.31;5011947;28;20613;-69
2022/09/08 11:30:19;;;;;;;0.30;0.30;;;;;;;11.13;56.04;99925.66;4974545;28;20183;-70
2022/09/08 11:33:03;;;;;;;0.60;0.60;;;;;;;11.87;54.07;99919.69;4981950;28;20057;-72
2022/09/08 11:36:02;;;;;;;1.25;1.20;;;;;;;14.07;48.77;99923.09;4979779;28;20069;-71
2022/09/08 11:38:40;;;;;;;1.00;1.00;;;;;;;16.20;44.22;99906.47;5005132;28;20065;-71
2022/09/08 11:41:46;;;;;;;0.30;0.30;;;;;;;16.42;42.16;99922.25;5012900;28;20061;-71
2022/09/08 11:44:42;;;;;;;0.43;0.30;;;;;;;15.09;45.06;99921.84;4991654;28;20054;-70
2022/09/08 11:47:41;;;;;;;0.30;0.30;;;;;;;13.89;47.75;99923.56;4949470;28;20148;-71
2022/09/08 11:50:34;;;;;;;0.45;0.30;;;;;;;12.62;50.93;99934.38;5004776;28;20054;-71
2022/09/08 11:53:27;;;;;;;0.20;0.20;;;;;;;11.82;53.25;99938.91;4965830;28;20057;-70
2022/09/08 11:56:33;;;;;;;2.28;0.30;;;;;;;11.44;54.32;99943.94;4996372;28;20054;-71
2022/09/08 11:59:16;;;;;;;0.35;0.20;;;;;;;11.28;54.69;99935.75;4987721;28;20237;-71
2022/09/08 12:01:59;;;;;;;0.28;0.28;;;;;;;11.27;54.83;99944.25;4992725;28;20386;-69
2022/09/08 12:04:41;;;;;;;0.20;0.20;;;;;;;11.33;54.54;99930.28;4975061;28;20224;-71
2022/09/08 12:07:39;;;;;;;0.25;0.25;;;;;;;11.37;54.08;99946.94;5000179;28;20143;-70
2022/09/08 12:10:35;;;;;;;0.25;0.25;;;;;;;11.60;53.74;99934.56;5007377;28;20199;-69
2022/09/08 12:13:09;;;;;;;0.60;0.60;;;;;;;12.06;52.29;99935.53;4946996;28;20057;-69
2022/09/08 12:15:59;;;;;;;0.30;0.30;;;;;;;13.17;49.92;99944.38;4988515;28;20615;-69
2022/09/08 12:18:51;;;;;;;0.40;0.40;;;;;;;13.57;49.00;99941.53;5020227;28;20140;-69
2022/09/08 12:21:43;;;;;;;0.60;0.60;;;;;;;14.66;46.50;99944.78;4998704;28;20053;-69